Chicora, PA

1:08 PM EDT on May 30, 2015 (GMT -0400)
Center Drive Oakland Township | | Change Station
CLOSE
Current Station
Personal Weather Station
Location: Chicora, PA
Elevation: 1158 ft
Nearby Weather Stations

Elev 1158 ft 40.92 °N, 79.84 °W | Updated 3 minutes ago

Mostly Cloudy
Mostly Cloudy
85.1 °F
Feels Like 88 °F
N
5.3
Wind Variable Wind from WSW

Today
High -- | Low -- °F
--% Chance of Precip.
Yesterday
High -- | Low -- °F
Precip. -- in
5:50 AM 8:43 PM
Waxing Gibbous, 91% visible
Pressure 30.10 in
Visibility 10.0 miles
Clouds Few 3700 ft
Scattered Clouds 4400 ft
Mostly Cloudy 5000 ft
Heat Index 88 °F
Dew Point 67 °F
Humidity 55%
Rainfall 0.00 in
Snow Depth Not available.
UV 6 out of 12
Pollen 8.80 out of 12
Air Quality Not available.
Flu Activity Sporadic
METAR KBTP 301655Z AUTO 22010G14KT 10SM FEW037 SCT044 BKN050 27/19 A3010 RMK AO1

More Conditions Fewer Conditions

Pressure 30.10 in
Visibility 10.0 miles
Clouds Few 3700 ft
Scattered Clouds 4400 ft
Mostly Cloudy 5000 ft
Heat Index 88 °F
Dew Point 67 °F
Humidity 55%
Rainfall 0.00 in
Snow Depth Not available.
UV 6 out of 12
Pollen 8.80 out of 12
Air Quality Not available.
Flu Activity Sporadic
METAR KBTP 301655Z AUTO 22010G14KT 10SM FEW037 SCT044 BKN050 27/19 A3010 RMK AO1

More Conditions Fewer Conditions

10-Day Weather Forecast

Almanac

Astronomy

May. 30, 2015 Rise Set
Actual Time
Civil Twilight
Nautical Twilight
Astronomical Twilight
Moon
Length of Visible Light
Length of Day
Tomorrow will be .
, % of the Moon is Illuminated

Today's Extremes

State Highs State Lows

Community

WunderPhotos

Upload Photos

1,825,571 photos uploaded!

WunderBlogs® & News

Nearby

Air Quality

  Air Quality AQ Index Pollutant
Not available.

Snow Depth

Station Depth Elevation

Earthquake Activity

City Distance Mag. Time & Date
Minimum magnitude displayed is 2.5.

Coastal Water Temperatures

Place Temperature

Stations

Nearby Weather Stations

Station Location Temp. Windchill Dew Point Humidity Wind Precip. Elev Updated Type